createdAt,value
2018-08-06T00:01:07.697Z,1.70
2018-08-06T00:03:39.873Z,1.70
2018-08-06T00:06:13.164Z,1.50
2018-08-06T00:08:42.743Z,1.75
2018-08-06T00:11:15.850Z,1.83
2018-08-06T00:13:45.777Z,2.42
2018-08-06T00:16:19.361Z,2.22
2018-08-06T00:18:48.924Z,1.90
2018-08-06T00:21:21.987Z,2.35
2018-08-06T00:23:51.606Z,2.80
2018-08-06T00:26:24.869Z,2.42
2018-08-06T00:28:54.439Z,1.32
2018-08-06T00:31:28.199Z,1.72
2018-08-06T00:33:57.825Z,1.67
2018-08-06T00:36:31.190Z,1.60
2018-08-06T00:39:13.663Z,1.80
2018-08-06T00:41:53.534Z,1.90
2018-08-06T00:44:35.894Z,2.33
2018-08-06T00:47:20.112Z,2.40
2018-08-06T00:52:40.799Z,2.45
2018-08-06T00:55:15.302Z,2.30
2018-08-06T00:58:10.374Z,2.62
2018-08-06T01:00:49.851Z,2.50
2018-08-06T01:03:25.459Z,2.20
2018-08-06T01:08:40.359Z,2.17
2018-08-06T01:11:09.933Z,2.40
2018-08-06T01:13:43.207Z,2.37
2018-08-06T01:16:40.702Z,3.05
2018-08-06T01:19:16.056Z,2.00
2018-08-06T01:21:47.014Z,1.80
2018-08-06T01:24:34.830Z,1.95
2018-08-06T01:27:04.395Z,0.70
2018-08-06T01:29:38.399Z,1.72
2018-08-06T01:32:17.879Z,2.65
2018-08-06T01:34:55.198Z,3.02
2018-08-06T01:40:24.742Z,2.40
2018-08-06T01:42:54.026Z,1.82
2018-08-06T01:45:27.085Z,1.90
2018-08-06T01:47:56.720Z,1.60
2018-08-06T01:50:30.828Z,1.35
2018-08-06T01:53:04.501Z,3.27
2018-08-06T01:55:37.031Z,1.55
2018-08-06T01:58:16.756Z,2.87
2018-08-06T02:00:58.443Z,2.52
2018-08-06T02:03:31.596Z,2.42
2018-08-06T02:06:08.280Z,1.77
2018-08-06T02:08:38.456Z,1.82
2018-08-06T02:11:21.584Z,3.22
2018-08-06T02:13:52.420Z,2.70
2018-08-06T02:16:39.890Z,3.00
2018-08-06T02:19:42.636Z,3.25
2018-08-06T02:22:36.304Z,4.03
2018-08-06T02:25:12.078Z,3.67
2018-08-06T02:27:55.649Z,2.12
2018-08-06T02:30:32.086Z,3.20
2018-08-06T02:33:06.873Z,2.30
2018-08-06T02:35:37.379Z,2.17
2018-08-06T02:38:10.027Z,3.15
2018-08-06T02:40:40.096Z,2.23
2018-08-06T02:43:12.684Z,2.00
2018-08-06T02:45:42.732Z,1.45
2018-08-06T02:48:17.258Z,2.65
2018-08-06T02:50:46.340Z,1.77
2018-08-06T02:53:18.874Z,1.37
2018-08-06T02:55:47.999Z,1.70
2018-08-06T02:58:25.200Z,1.52
2018-08-06T03:00:54.343Z,1.47
2018-08-06T03:03:26.052Z,1.60
2018-08-06T03:05:55.076Z,1.67
2018-08-06T03:08:26.901Z,1.60
2018-08-06T03:10:56.005Z,1.90
2018-08-06T03:13:28.814Z,1.55
2018-08-06T03:15:57.979Z,1.70
2018-08-06T03:18:31.443Z,1.57
2018-08-06T03:21:00.380Z,1.35
2018-08-06T03:23:33.154Z,1.55
2018-08-06T03:26:02.216Z,1.67
2018-08-06T03:28:34.180Z,1.50
2018-08-06T03:31:03.258Z,1.42
2018-08-06T03:33:36.837Z,1.50
2018-08-06T03:36:05.937Z,1.57
2018-08-06T03:38:38.652Z,1.92
2018-08-06T03:41:07.745Z,1.30
2018-08-06T03:43:41.287Z,1.52
2018-08-06T03:46:11.089Z,1.82
2018-08-06T03:48:43.112Z,1.50
2018-08-06T03:51:13.623Z,1.60
2018-08-06T03:53:45.902Z,2.05
2018-08-06T03:56:19.746Z,2.25
2018-08-06T03:58:58.655Z,1.90
2018-08-06T04:01:27.916Z,1.60
2018-08-06T04:04:01.268Z,2.42
2018-08-06T04:06:30.757Z,1.90
2018-08-06T04:09:02.932Z,1.85
2018-08-06T04:11:32.070Z,2.40
2018-08-06T04:14:04.759Z,2.97
2018-08-06T04:16:38.897Z,1.90
2018-08-06T04:19:12.018Z,1.67
2018-08-06T04:21:41.213Z,2.00
2018-08-06T04:24:13.908Z,2.27
2018-08-06T04:26:43.112Z,2.77
2018-08-06T04:29:16.277Z,2.30
2018-08-06T04:31:45.507Z,1.77
2018-08-06T04:34:18.211Z,2.50
2018-08-06T04:36:47.462Z,1.82
2018-08-06T04:39:19.975Z,1.80
2018-08-06T04:41:49.313Z,2.43
2018-08-06T04:44:32.110Z,2.22
2018-08-06T04:47:02.152Z,4.07
2018-08-06T04:49:36.260Z,1.98
2018-08-06T04:52:16.899Z,2.20
2018-08-06T04:54:48.750Z,2.25
2018-08-06T05:17:25.158Z,1.90
2018-08-06T05:19:56.919Z,2.08
2018-08-06T05:22:29.133Z,2.15
2018-08-06T05:25:03.427Z,2.02
2018-08-06T05:27:33.168Z,2.62
2018-08-06T05:30:06.016Z,2.07
2018-08-06T05:32:35.516Z,2.35
2018-08-06T05:38:38.857Z,1.53
2018-08-06T05:41:08.428Z,1.40
2018-08-06T05:43:40.692Z,1.40
2018-08-06T05:46:10.678Z,1.92
2018-08-06T05:48:44.593Z,1.50
2018-08-06T05:51:14.815Z,1.42
2018-08-06T05:53:48.823Z,1.45
2018-08-06T05:56:18.356Z,1.57
2018-08-06T05:58:52.487Z,1.82
2018-08-06T06:01:58.010Z,3.22
2018-08-06T06:05:08.457Z,2.85
2018-08-06T06:08:00.561Z,3.17
2018-08-06T06:11:07.602Z,1.90
2018-08-06T06:14:09.684Z,3.10
2018-08-06T06:16:50.484Z,2.72
2018-08-06T06:22:06.202Z,1.50
2018-08-06T06:24:35.989Z,2.10
2018-08-06T06:27:08.962Z,1.77
2018-08-06T06:29:42.632Z,1.40
2018-08-06T06:32:16.360Z,1.67
2018-08-06T06:34:47.172Z,1.30
2018-08-06T06:37:19.776Z,1.73
2018-08-06T06:39:49.534Z,2.33
2018-08-06T06:42:45.759Z,1.30
2018-08-06T06:49:23.960Z,1.42
2018-08-06T06:51:54.758Z,1.62
2018-08-06T06:54:28.424Z,1.63
2018-08-06T06:56:58.693Z,1.77
2018-08-06T06:59:31.959Z,1.70
2018-08-06T07:02:10.013Z,1.52
2018-08-06T07:04:41.922Z,1.30
2018-08-06T07:07:12.523Z,1.60
2018-08-06T07:09:46.391Z,1.40
2018-08-06T07:12:15.519Z,1.15
2018-08-06T07:14:48.102Z,1.30
2018-08-06T07:17:18.121Z,1.10
2018-08-06T07:19:54.817Z,1.07
2018-08-06T07:22:26.749Z,1.30
2018-08-06T07:24:59.016Z,0.70
2018-08-06T07:27:28.537Z,0.90
2018-08-06T07:30:00.872Z,1.32
2018-08-06T07:32:32.577Z,1.92
2018-08-06T07:35:05.305Z,1.27
2018-08-06T07:37:33.800Z,1.57
2018-08-06T07:40:06.089Z,1.82
2018-08-06T07:42:35.178Z,1.30
2018-08-06T07:45:07.994Z,0.93
2018-08-06T07:47:37.300Z,2.42
2018-08-06T07:50:11.408Z,1.10
2018-08-06T07:52:40.365Z,0.65
2018-08-06T07:55:13.260Z,0.65
2018-08-06T07:57:42.150Z,0.70
2018-08-06T08:00:17.773Z,0.53
2018-08-06T08:02:49.892Z,1.10
2018-08-06T08:05:23.197Z,1.20
2018-08-06T08:07:52.727Z,1.12
2018-08-06T08:10:26.720Z,0.80
2018-08-06T08:12:56.073Z,0.97
2018-08-06T08:15:30.335Z,0.90
2018-08-06T08:17:59.403Z,1.27
2018-08-06T08:20:32.647Z,0.70
2018-08-06T08:23:03.134Z,1.05
2018-08-06T08:25:35.814Z,2.00
2018-08-06T08:28:04.848Z,0.90
2018-08-06T08:30:38.488Z,1.10
2018-08-06T08:33:09.141Z,0.80
2018-08-06T08:35:41.149Z,1.12
2018-08-06T08:38:10.070Z,0.55
2018-08-06T08:40:41.953Z,0.80
2018-08-06T08:43:11.031Z,1.10
2018-08-06T08:45:42.928Z,0.60
2018-08-06T08:48:13.001Z,0.80
2018-08-06T08:50:46.627Z,0.65
2018-08-06T08:53:15.752Z,0.72
2018-08-06T08:55:49.645Z,0.70
2018-08-06T08:58:18.599Z,0.62
2018-08-06T09:00:51.021Z,1.05
2018-08-06T09:03:34.878Z,0.88
2018-08-06T09:06:07.215Z,0.68
2018-08-06T09:08:36.902Z,1.35
2018-08-06T09:11:09.963Z,0.60
2018-08-06T09:13:40.569Z,1.47
2018-08-06T09:16:13.591Z,0.95
2018-08-06T09:18:42.739Z,1.10
2018-08-06T09:21:15.359Z,0.83
2018-08-06T09:23:45.241Z,0.73
2018-08-06T09:26:18.162Z,0.98
2018-08-06T09:28:48.035Z,0.95
2018-08-06T09:31:21.594Z,1.35
2018-08-06T09:33:51.539Z,1.00
2018-08-06T09:36:25.277Z,1.30
2018-08-06T09:38:54.739Z,0.55
2018-08-06T09:41:27.071Z,0.85
2018-08-06T09:43:56.709Z,1.30
2018-08-06T09:46:28.862Z,1.15
2018-08-06T09:48:57.987Z,1.50
2018-08-06T09:51:31.543Z,1.12
2018-08-06T09:54:00.929Z,0.70
2018-08-06T09:56:33.395Z,0.90
2018-08-06T09:59:02.521Z,0.78
2018-08-06T10:01:41.460Z,0.75
2018-08-06T10:04:17.419Z,0.90
2018-08-06T10:06:51.381Z,1.30
2018-08-06T10:09:20.336Z,0.60
2018-08-06T10:11:53.217Z,0.70
2018-08-06T10:14:22.360Z,1.02
2018-08-06T10:16:54.968Z,0.50
2018-08-06T10:19:24.036Z,0.72
2018-08-06T10:21:55.816Z,1.17
2018-08-06T10:24:25.071Z,0.68
2018-08-06T10:26:58.869Z,0.80
2018-08-06T10:29:27.859Z,0.53
2018-08-06T10:32:00.328Z,1.00
2018-08-06T10:34:30.111Z,0.65
2018-08-06T10:37:02.997Z,0.70
2018-08-06T10:39:32.982Z,0.78
2018-08-06T10:42:06.663Z,1.20
2018-08-06T10:44:36.227Z,0.70
2018-08-06T10:47:09.329Z,0.60
2018-08-06T10:49:38.782Z,0.62
2018-08-06T10:52:11.105Z,0.73
2018-08-06T10:54:40.103Z,0.72
2018-08-06T10:57:12.426Z,0.80
2018-08-06T10:59:41.691Z,0.70
2018-08-06T11:02:15.560Z,0.40
2018-08-06T11:04:48.076Z,0.57
2018-08-06T11:07:20.957Z,0.47
2018-08-06T11:09:51.105Z,0.60
2018-08-06T11:12:25.456Z,0.70
2018-08-06T11:14:55.018Z,0.60
2018-08-06T11:17:27.344Z,0.50
2018-08-06T11:19:57.218Z,0.75
2018-08-06T11:22:29.128Z,1.75
2018-08-06T11:24:58.348Z,0.90
2018-08-06T11:27:32.644Z,0.57
2018-08-06T11:30:02.096Z,1.10
2018-08-06T11:32:35.433Z,0.60
2018-08-06T11:35:04.864Z,0.65
2018-08-06T11:37:37.132Z,0.50
2018-08-06T11:40:07.283Z,0.68
2018-08-06T11:42:41.469Z,0.50
2018-08-06T11:45:12.695Z,0.60
2018-08-06T11:47:45.193Z,0.63
2018-08-06T11:50:14.879Z,0.57
2018-08-06T11:52:47.885Z,0.50
2018-08-06T11:55:16.874Z,0.75
2018-08-06T11:57:51.351Z,0.70
2018-08-06T12:00:23.064Z,0.62
2018-08-06T12:02:56.065Z,0.60
2018-08-06T12:05:38.072Z,0.90
2018-08-06T12:08:11.353Z,0.85
2018-08-06T12:10:40.331Z,0.70
2018-08-06T12:13:13.214Z,0.80
2018-08-06T12:15:43.205Z,0.55
2018-08-06T12:18:15.837Z,0.50
2018-08-06T12:20:45.879Z,0.60
2018-08-06T12:23:19.423Z,0.65
2018-08-06T12:25:49.196Z,0.60
2018-08-06T12:28:21.355Z,0.55
2018-08-06T12:30:52.020Z,0.57
2018-08-06T12:33:23.929Z,1.30
2018-08-06T12:35:52.945Z,0.65
2018-08-06T12:38:26.625Z,0.72
2018-08-06T12:40:55.470Z,0.53
2018-08-06T12:43:28.876Z,0.60
2018-08-06T12:45:58.289Z,0.60
2018-08-06T12:48:30.116Z,0.72
2018-08-06T12:51:00.072Z,0.82
2018-08-06T12:53:33.374Z,0.72
2018-08-06T12:56:03.188Z,0.85
2018-08-06T12:58:38.761Z,0.70
2018-08-06T13:01:08.020Z,0.85
2018-08-06T13:03:40.206Z,0.57
2018-08-06T13:06:14.027Z,0.57
2018-08-06T13:08:48.186Z,0.55
2018-08-06T13:11:18.463Z,0.70
2018-08-06T13:13:52.824Z,0.42
2018-08-06T13:16:23.746Z,1.87
2018-08-06T13:18:56.381Z,0.70
2018-08-06T13:21:26.016Z,1.10
2018-08-06T13:23:59.758Z,0.78
2018-08-06T13:26:30.204Z,0.72
2018-08-06T13:29:04.447Z,0.60
2018-08-06T13:31:34.379Z,0.45
2018-08-06T13:34:06.297Z,0.60
2018-08-06T13:36:35.520Z,0.50
2018-08-06T13:39:10.739Z,0.60
2018-08-06T13:41:40.129Z,0.70
2018-08-06T13:44:13.885Z,0.60
2018-08-06T13:46:43.290Z,1.00
2018-08-06T13:49:16.038Z,1.12
2018-08-06T13:51:46.912Z,0.70
2018-08-06T13:54:20.797Z,0.72
2018-08-06T13:56:50.008Z,0.85
2018-08-06T13:59:27.745Z,0.95
2018-08-06T14:01:56.866Z,0.90
2018-08-06T14:04:30.484Z,0.70
2018-08-06T14:07:02.718Z,0.60
2018-08-06T14:09:36.296Z,0.70
2018-08-06T14:12:05.219Z,0.70
2018-08-06T14:14:38.651Z,0.75
2018-08-06T14:17:07.942Z,0.80
2018-08-06T14:19:40.441Z,0.80
2018-08-06T14:22:09.382Z,0.78
2018-08-06T14:24:41.630Z,0.80
2018-08-06T14:27:10.875Z,0.82
2018-08-06T14:29:43.049Z,1.05
2018-08-06T14:32:12.144Z,0.57
2018-08-06T14:34:44.019Z,0.95
2018-08-06T14:37:13.808Z,0.62
2018-08-06T14:39:47.895Z,0.70
2018-08-06T14:42:17.205Z,0.50
2018-08-06T14:44:50.286Z,0.80
2018-08-06T14:47:20.418Z,0.80
2018-08-06T14:49:53.040Z,1.03
2018-08-06T14:52:22.731Z,0.95
2018-08-06T14:55:19.033Z,1.92
2018-08-06T14:58:18.665Z,3.17
2018-08-06T15:01:29.317Z,2.37
2018-08-06T15:04:18.359Z,2.27
2018-08-06T15:07:04.483Z,2.12
